createdAt,value
2018-11-02T00:00:24.342Z,4.50
2018-11-02T00:02:52.878Z,4.50
2018-11-02T00:05:21.434Z,4.50
2018-11-02T00:07:49.997Z,4.50
2018-11-02T00:10:18.543Z,4.40
2018-11-02T00:12:47.078Z,4.40
2018-11-02T00:15:15.620Z,4.40
2018-11-02T00:17:44.202Z,4.40
2018-11-02T00:20:12.811Z,4.40
2018-11-02T00:22:41.385Z,4.40
2018-11-02T00:25:09.878Z,4.40
2018-11-02T00:27:38.378Z,4.40
2018-11-02T00:30:06.945Z,4.40
2018-11-02T00:32:35.515Z,4.40
2018-11-02T00:35:04.153Z,4.40
2018-11-02T00:37:32.676Z,4.40
2018-11-02T00:40:01.147Z,4.30
2018-11-02T00:42:29.996Z,4.40
2018-11-02T00:44:58.542Z,4.30
2018-11-02T00:47:27.011Z,4.30
2018-11-02T00:49:55.511Z,4.30
2018-11-02T00:52:24.029Z,4.30
2018-11-02T00:54:52.562Z,4.40
2018-11-02T00:57:21.034Z,4.40
2018-11-02T00:59:49.603Z,4.40
2018-11-02T01:02:18.099Z,4.40
2018-11-02T01:04:46.629Z,4.40
2018-11-02T01:07:15.149Z,4.40
2018-11-02T01:09:43.669Z,4.40
2018-11-02T01:12:12.179Z,4.50
2018-11-02T01:14:40.711Z,4.50
2018-11-02T01:17:09.204Z,4.50
2018-11-02T01:19:37.736Z,4.50
2018-11-02T01:22:06.666Z,4.50
2018-11-02T01:24:35.167Z,4.50
2018-11-02T01:27:03.769Z,4.40
2018-11-02T01:29:32.263Z,4.40
2018-11-02T01:32:00.764Z,4.40
2018-11-02T01:34:29.331Z,4.40
2018-11-02T01:36:57.933Z,4.40
2018-11-02T01:39:26.457Z,4.30
2018-11-02T01:41:54.962Z,4.20
2018-11-02T01:44:23.479Z,4.20
2018-11-02T01:46:51.992Z,4.20
2018-11-02T01:49:20.563Z,4.10
2018-11-02T01:51:49.056Z,4.10
2018-11-02T01:54:17.638Z,4.00
2018-11-02T01:56:46.157Z,4.00
2018-11-02T01:59:14.685Z,4.00
2018-11-02T02:01:43.194Z,3.90
2018-11-02T02:04:11.743Z,3.90
2018-11-02T02:06:40.223Z,3.90
2018-11-02T02:09:10.511Z,3.90
2018-11-02T02:11:38.990Z,3.90
2018-11-02T02:14:08.016Z,3.80
2018-11-02T02:16:36.579Z,3.80
2018-11-02T02:19:05.532Z,3.80
2018-11-02T02:21:34.125Z,3.80
2018-11-02T02:24:02.747Z,3.70
2018-11-02T02:26:31.217Z,3.70
2018-11-02T02:28:59.744Z,3.70
2018-11-02T02:31:28.307Z,3.60
2018-11-02T02:33:56.886Z,3.60
2018-11-02T02:36:25.387Z,3.60
2018-11-02T02:38:54.006Z,3.60
2018-11-02T02:41:22.530Z,3.50
2018-11-02T02:43:51.112Z,3.60
2018-11-02T02:46:19.597Z,3.60
2018-11-02T02:48:48.140Z,3.60
2018-11-02T02:51:16.690Z,3.70
2018-11-02T02:53:45.233Z,3.70
2018-11-02T02:56:13.735Z,3.70
2018-11-02T02:58:42.351Z,3.80
2018-11-02T03:01:10.811Z,3.80
2018-11-02T03:03:39.305Z,3.80
2018-11-02T03:06:07.841Z,3.80
2018-11-02T03:08:36.419Z,3.70
2018-11-02T03:11:05.313Z,3.70
2018-11-02T03:13:33.709Z,3.70
2018-11-02T03:16:02.250Z,3.70
2018-11-02T03:18:30.808Z,3.60
2018-11-02T03:20:59.402Z,3.60
2018-11-02T03:23:27.915Z,3.60
2018-11-02T03:25:56.421Z,3.60
2018-11-02T03:28:24.949Z,3.60
2018-11-02T03:30:53.540Z,3.60
2018-11-02T03:33:22.134Z,3.60
2018-11-02T03:35:50.646Z,3.60
2018-11-02T03:38:19.266Z,3.60
2018-11-02T03:40:47.855Z,3.60
2018-11-02T03:43:16.386Z,3.50
2018-11-02T03:45:44.909Z,3.50
2018-11-02T03:48:13.395Z,3.50
2018-11-02T03:50:42.424Z,3.50
2018-11-02T03:53:10.913Z,3.50
2018-11-02T03:55:39.439Z,3.50
2018-11-02T03:58:07.909Z,3.40
2018-11-02T04:00:36.402Z,3.40
2018-11-02T04:03:06.069Z,3.30
2018-11-02T04:05:34.561Z,3.20
2018-11-02T04:08:03.092Z,3.20
2018-11-02T04:10:31.653Z,3.20
2018-11-02T04:13:00.156Z,3.20
2018-11-02T04:15:28.683Z,3.20
2018-11-02T04:17:57.140Z,3.10
2018-11-02T04:20:25.651Z,3.10
2018-11-02T04:22:54.131Z,3.00
2018-11-02T04:25:22.624Z,3.00
2018-11-02T04:27:51.086Z,3.00
2018-11-02T04:30:19.642Z,3.00
2018-11-02T04:32:48.150Z,3.00
2018-11-02T04:35:16.724Z,3.00
2018-11-02T04:37:45.215Z,3.10
2018-11-02T04:40:13.768Z,3.10
2018-11-02T04:42:42.210Z,3.20
2018-11-02T04:45:10.737Z,3.20
2018-11-02T04:47:39.302Z,3.20
2018-11-02T04:50:08.726Z,3.20
2018-11-02T04:52:37.206Z,3.20
2018-11-02T04:55:06.433Z,3.20
2018-11-02T04:57:34.881Z,3.20
2018-11-02T05:00:03.964Z,3.20
2018-11-02T05:02:32.426Z,3.20
2018-11-02T05:05:01.018Z,3.10
2018-11-02T05:07:29.471Z,3.10
2018-11-02T05:09:58.089Z,3.10
2018-11-02T05:12:26.475Z,3.00
2018-11-02T05:14:54.974Z,3.00
2018-11-02T05:17:23.405Z,2.90
2018-11-02T05:19:51.930Z,2.90
2018-11-02T05:22:21.960Z,2.90
2018-11-02T05:24:50.653Z,2.90
2018-11-02T05:27:19.143Z,2.90
2018-11-02T05:29:47.794Z,3.00
2018-11-02T05:32:16.495Z,3.00
2018-11-02T05:34:45.051Z,3.10
2018-11-02T05:37:13.543Z,3.10
2018-11-02T05:39:42.430Z,3.10
2018-11-02T05:42:10.798Z,3.10
2018-11-02T05:44:39.283Z,3.20
2018-11-02T05:47:07.764Z,3.20
2018-11-02T05:49:36.214Z,3.20
2018-11-02T05:52:04.777Z,3.30
2018-11-02T05:54:33.438Z,3.20
2018-11-02T05:57:01.913Z,3.30
2018-11-02T05:59:30.395Z,3.30
2018-11-02T06:01:58.831Z,3.30
2018-11-02T06:04:27.330Z,3.30
2018-11-02T06:06:55.802Z,3.30
2018-11-02T06:09:24.306Z,3.30
2018-11-02T06:11:52.783Z,3.30
2018-11-02T06:14:21.256Z,3.30
2018-11-02T06:16:49.843Z,3.30
2018-11-02T06:19:18.448Z,3.30
2018-11-02T06:21:46.952Z,3.30
2018-11-02T06:24:15.514Z,3.30
2018-11-02T06:26:43.955Z,3.30
2018-11-02T06:29:12.420Z,3.20
2018-11-02T06:31:40.906Z,3.20
2018-11-02T06:34:09.458Z,3.20
2018-11-02T06:36:37.991Z,3.20
2018-11-02T06:39:08.296Z,3.20
2018-11-02T06:41:36.830Z,3.20
2018-11-02T06:44:05.379Z,3.20
2018-11-02T06:46:33.837Z,3.20
2018-11-02T06:49:02.286Z,3.20
2018-11-02T06:51:30.849Z,3.20
2018-11-02T06:53:59.325Z,3.10
2018-11-02T06:56:27.762Z,3.10
2018-11-02T06:58:56.339Z,3.10
2018-11-02T07:01:24.782Z,3.20
2018-11-02T07:03:53.418Z,3.20
2018-11-02T07:06:21.884Z,3.30
2018-11-02T07:08:50.362Z,3.30
2018-11-02T07:11:18.838Z,3.40
2018-11-02T07:13:48.175Z,3.40
2018-11-02T07:16:16.615Z,3.40
2018-11-02T07:18:45.095Z,3.50
2018-11-02T07:21:14.430Z,3.50
2018-11-02T07:23:42.987Z,3.50
2018-11-02T07:26:11.432Z,3.60
2018-11-02T07:28:39.940Z,3.60
2018-11-02T07:31:08.399Z,3.60
2018-11-02T07:33:36.887Z,3.70
2018-11-02T07:36:05.463Z,3.70
2018-11-02T07:38:33.969Z,3.70
2018-11-02T07:41:02.519Z,3.70
2018-11-02T07:43:31.002Z,3.80
2018-11-02T07:45:59.476Z,3.90
2018-11-02T07:48:28.011Z,3.90
2018-11-02T07:50:56.491Z,4.00
2018-11-02T07:53:24.978Z,4.10
2018-11-02T07:55:53.473Z,4.10
2018-11-02T07:58:21.962Z,4.20
2018-11-02T08:00:50.416Z,4.30
2018-11-02T08:03:18.897Z,4.40
2018-11-02T08:05:47.354Z,4.40
2018-11-02T08:08:15.890Z,4.50
2018-11-02T08:10:44.378Z,4.60
2018-11-02T08:13:12.853Z,4.70
2018-11-02T08:15:41.302Z,4.70
2018-11-02T08:18:09.757Z,4.80
2018-11-02T08:20:38.215Z,5.00
2018-11-02T08:23:06.694Z,5.10
2018-11-02T08:25:35.120Z,5.20
2018-11-02T08:28:03.779Z,5.30
2018-11-02T08:30:32.239Z,5.40
2018-11-02T08:33:00.708Z,5.50
2018-11-02T08:35:29.184Z,5.60
2018-11-02T08:37:57.670Z,5.70
2018-11-02T08:40:26.161Z,5.70
2018-11-02T08:42:54.624Z,5.90
2018-11-02T08:45:23.050Z,6.00
2018-11-02T08:47:51.496Z,6.10
2018-11-02T08:50:19.928Z,6.30
2018-11-02T08:52:48.431Z,6.40
2018-11-02T08:55:16.883Z,6.50
2018-11-02T08:57:45.487Z,6.70
2018-11-02T09:00:14.165Z,6.80
2018-11-02T09:02:42.588Z,7.00
2018-11-02T09:05:11.133Z,7.10
2018-11-02T09:07:39.554Z,7.20
2018-11-02T09:10:09.948Z,7.30
2018-11-02T09:12:38.421Z,7.40
2018-11-02T09:15:06.970Z,7.50
2018-11-02T09:17:35.577Z,7.60
2018-11-02T09:20:04.233Z,7.70
2018-11-02T09:22:32.666Z,7.80
2018-11-02T09:25:01.294Z,8.00
2018-11-02T09:27:29.841Z,8.10
2018-11-02T09:29:58.273Z,8.30
2018-11-02T09:32:26.736Z,8.50
2018-11-02T09:34:55.261Z,8.70
2018-11-02T09:37:23.805Z,8.90
2018-11-02T09:39:52.250Z,9.10
2018-11-02T09:42:20.857Z,9.40
2018-11-02T09:44:49.406Z,9.60
2018-11-02T09:47:17.920Z,9.80
2018-11-02T09:49:46.395Z,10.10
2018-11-02T09:52:14.866Z,10.30
2018-11-02T09:54:43.335Z,10.50
2018-11-02T09:57:11.831Z,10.60
2018-11-02T09:59:40.369Z,10.70
2018-11-02T10:02:09.027Z,10.90
2018-11-02T10:04:37.377Z,11.10
2018-11-02T10:07:05.928Z,11.30
2018-11-02T10:09:34.421Z,11.40
2018-11-02T10:12:05.082Z,11.60
2018-11-02T10:14:33.598Z,11.80
2018-11-02T10:17:02.390Z,11.90
2018-11-02T10:19:30.973Z,12.10
2018-11-02T10:21:59.622Z,12.30
2018-11-02T10:24:28.366Z,12.40
2018-11-02T10:26:56.921Z,12.40
2018-11-02T10:29:25.578Z,12.30
2018-11-02T10:31:54.262Z,12.30
2018-11-02T10:34:23.050Z,12.40
2018-11-02T10:36:51.730Z,12.40
2018-11-02T10:39:20.238Z,12.50
2018-11-02T10:41:51.781Z,12.60
2018-11-02T10:44:26.444Z,12.70
2018-11-02T10:46:54.965Z,12.80
2018-11-02T10:49:23.501Z,12.90
2018-11-02T10:51:52.045Z,12.90
2018-11-02T10:54:20.617Z,12.90
2018-11-02T10:56:49.238Z,13.00
2018-11-02T10:59:17.739Z,13.00
2018-11-02T11:01:50.387Z,13.20
2018-11-02T11:04:19.205Z,13.40
2018-11-02T11:06:47.818Z,13.50
2018-11-02T11:09:16.368Z,13.60
2018-11-02T11:11:45.046Z,15.00
2018-11-02T11:14:13.475Z,14.30
2018-11-02T11:16:41.941Z,14.60
2018-11-02T11:19:11.034Z,14.40
2018-11-02T11:21:40.724Z,14.30
2018-11-02T11:24:09.300Z,14.40
2018-11-02T11:26:38.489Z,14.20
2018-11-02T11:29:07.215Z,14.00
2018-11-02T11:31:36.161Z,14.00
2018-11-02T11:34:05.574Z,14.00
2018-11-02T11:36:34.279Z,14.30
2018-11-02T11:39:02.998Z,14.30
2018-11-02T11:41:31.544Z,14.30
2018-11-02T11:44:00.051Z,14.20
2018-11-02T11:46:28.551Z,14.00
2018-11-02T11:48:57.177Z,14.00
2018-11-02T11:51:25.580Z,14.00
2018-11-02T11:53:54.101Z,14.00
2018-11-02T11:56:22.585Z,13.80
2018-11-02T11:58:51.153Z,14.00
2018-11-02T12:01:19.776Z,14.20
2018-11-02T12:03:48.329Z,14.30
2018-11-02T12:06:20.094Z,14.30
2018-11-02T12:08:49.566Z,14.40
2018-11-02T12:11:26.867Z,14.80
2018-11-02T12:13:55.423Z,15.00
2018-11-02T12:16:23.958Z,15.00
2018-11-02T12:18:52.497Z,15.00
2018-11-02T12:21:21.019Z,15.00
2018-11-02T12:23:49.566Z,14.80
2018-11-02T12:26:18.045Z,14.70
2018-11-02T12:28:46.635Z,14.50
2018-11-02T12:31:15.114Z,14.40
2018-11-02T12:33:43.821Z,14.50
2018-11-02T12:36:12.326Z,14.50
2018-11-02T12:38:40.915Z,14.50
2018-11-02T12:41:09.381Z,14.40
2018-11-02T12:43:38.408Z,14.40
2018-11-02T12:46:06.720Z,14.40
2018-11-02T12:48:35.383Z,14.30
2018-11-02T12:51:03.776Z,14.30
2018-11-02T12:53:32.252Z,14.20
2018-11-02T12:56:00.800Z,14.20
2018-11-02T12:58:29.247Z,14.20
2018-11-02T13:00:57.758Z,14.20
2018-11-02T13:03:26.226Z,14.20
2018-11-02T13:05:55.602Z,14.30
2018-11-02T13:08:24.071Z,14.40
2018-11-02T13:10:52.575Z,14.60
2018-11-02T13:13:21.030Z,14.80
2018-11-02T13:15:49.566Z,14.90
2018-11-02T13:18:19.833Z,14.90
2018-11-02T13:20:48.333Z,14.80
2018-11-02T13:23:16.818Z,14.80
2018-11-02T13:25:45.391Z,14.90
2018-11-02T13:28:13.820Z,14.80
2018-11-02T13:30:42.416Z,14.80
2018-11-02T13:33:10.875Z,14.60
2018-11-02T13:35:39.365Z,14.40
2018-11-02T13:38:07.871Z,14.40
2018-11-02T13:40:36.358Z,14.40
2018-11-02T13:43:04.977Z,14.40
2018-11-02T13:45:33.497Z,14.40
2018-11-02T13:48:02.025Z,14.40
2018-11-02T13:50:30.754Z,14.30
2018-11-02T13:52:59.161Z,14.30
2018-11-02T13:55:27.739Z,14.20
2018-11-02T13:57:56.215Z,14.00
2018-11-02T14:00:25.639Z,13.90
2018-11-02T14:02:54.174Z,13.80
2018-11-02T14:05:22.617Z,13.70
2018-11-02T14:07:51.140Z,13.60
2018-11-02T14:10:19.564Z,13.60
2018-11-02T14:12:48.049Z,13.60
2018-11-02T14:15:17.548Z,13.50
2018-11-02T14:17:46.222Z,13.40
2018-11-02T14:20:15.138Z,13.30
2018-11-02T14:22:43.621Z,13.20
2018-11-02T14:25:13.415Z,13.00
2018-11-02T14:27:42.121Z,12.90
2018-11-02T14:30:12.548Z,12.80
2018-11-02T14:32:41.002Z,12.70
2018-11-02T14:35:09.537Z,12.70
2018-11-02T14:37:38.051Z,12.60
2018-11-02T14:40:07.817Z,12.60
2018-11-02T14:42:36.926Z,12.60
2018-11-02T14:45:06.839Z,12.60
2018-11-02T14:47:35.295Z,12.60
2018-11-02T14:50:03.909Z,12.50
2018-11-02T14:52:32.403Z,12.50
2018-11-02T14:55:00.874Z,12.50
2018-11-02T14:57:29.363Z,12.50
2018-11-02T14:59:57.874Z,12.40
2018-11-02T15:02:26.342Z,12.30
2018-11-02T15:04:54.835Z,12.30
2018-11-02T15:07:23.314Z,12.30
2018-11-02T15:09:51.793Z,12.20
2018-11-02T15:12:20.257Z,12.20
2018-11-02T15:14:48.771Z,12.10
2018-11-02T15:17:17.231Z,12.10
2018-11-02T15:19:45.708Z,12.00
2018-11-02T15:22:14.134Z,12.00
2018-11-02T15:24:42.614Z,11.90
2018-11-02T15:27:11.066Z,11.90
2018-11-02T15:29:39.575Z,11.90
2018-11-02T15:32:08.038Z,11.90
2018-11-02T15:34:36.603Z,11.80
2018-11-02T15:37:05.065Z,11.70
2018-11-02T15:39:33.594Z,11.70
2018-11-02T15:42:02.141Z,11.60
2018-11-02T15:44:30.655Z,11.60
2018-11-02T15:46:59.064Z,11.50
2018-11-02T15:49:27.555Z,11.50
2018-11-02T15:51:56.105Z,11.40
2018-11-02T15:54:24.614Z,11.40
2018-11-02T15:56:53.071Z,11.40
2018-11-02T15:59:21.566Z,11.30
2018-11-02T16:01:50.031Z,11.30
2018-11-02T16:04:18.532Z,11.20
2018-11-02T16:06:47.010Z,11.20
2018-11-02T16:09:16.287Z,11.10
2018-11-02T16:11:45.656Z,11.10
2018-11-02T16:14:14.665Z,11.10
2018-11-02T16:16:43.084Z,11.00
2018-11-02T16:19:11.566Z,11.00
2018-11-02T16:21:40.082Z,10.90
2018-11-02T16:24:09.659Z,10.90
2018-11-02T16:26:38.116Z,10.80
2018-11-02T16:29:06.689Z,10.80
2018-11-02T16:31:35.227Z,10.70
2018-11-02T16:34:03.805Z,10.70
2018-11-02T16:36:32.251Z,10.60
2018-11-02T16:39:00.807Z,10.60
2018-11-02T16:41:29.262Z,10.50
2018-11-02T16:43:57.814Z,10.50
2018-11-02T16:46:26.277Z,10.50
2018-11-02T16:48:54.821Z,10.40
2018-11-02T16:51:23.377Z,10.40
2018-11-02T16:53:51.926Z,10.40
2018-11-02T16:56:22.007Z,10.40
2018-11-02T16:58:50.985Z,10.30
2018-11-02T17:01:19.478Z,10.30
2018-11-02T17:03:48.343Z,10.30
2018-11-02T17:06:17.634Z,10.30
2018-11-02T17:08:46.137Z,10.30
2018-11-02T17:11:14.645Z,10.30
2018-11-02T17:13:43.132Z,10.30
2018-11-02T17:16:11.666Z,10.30
2018-11-02T17:18:40.195Z,10.30
2018-11-02T17:21:08.718Z,10.30
2018-11-02T17:23:37.237Z,10.20
2018-11-02T17:26:06.102Z,10.20
2018-11-02T17:28:34.639Z,10.20
2018-11-02T17:31:03.102Z,10.20
2018-11-02T17:33:35.502Z,10.20
2018-11-02T17:36:04.010Z,10.20
2018-11-02T17:38:33.370Z,10.20
2018-11-02T17:41:01.868Z,10.10
2018-11-02T17:43:31.401Z,10.10
2018-11-02T17:46:00.095Z,10.10
2018-11-02T17:48:28.574Z,10.10
2018-11-02T17:50:58.009Z,10.00
2018-11-02T17:53:26.538Z,10.00
2018-11-02T17:55:55.197Z,10.00
2018-11-02T17:58:23.865Z,10.00
2018-11-02T18:00:52.359Z,10.00
2018-11-02T18:03:20.902Z,10.00
2018-11-02T18:05:49.727Z,10.00
2018-11-02T18:08:18.328Z,10.10
2018-11-02T18:10:46.693Z,10.10
2018-11-02T18:13:15.233Z,10.00
2018-11-02T18:15:43.906Z,10.00
2018-11-02T18:18:12.410Z,10.00
2018-11-02T18:20:40.873Z,10.00
2018-11-02T18:23:09.512Z,10.00
2018-11-02T18:25:38.006Z,10.00
2018-11-02T18:28:06.475Z,9.90
2018-11-02T18:30:34.953Z,9.90
2018-11-02T18:33:03.522Z,9.90
2018-11-02T18:35:32.091Z,9.80
2018-11-02T18:38:00.486Z,9.80
2018-11-02T18:40:28.939Z,9.80
2018-11-02T18:42:57.417Z,9.80
2018-11-02T18:45:25.902Z,9.70
2018-11-02T18:47:54.415Z,9.70
2018-11-02T18:50:23.241Z,9.60
2018-11-02T18:52:52.033Z,9.60
2018-11-02T18:55:20.911Z,9.60
2018-11-02T18:57:49.510Z,9.60
2018-11-02T19:00:18.291Z,9.60
2018-11-02T19:02:46.838Z,9.60
2018-11-02T19:05:16.537Z,9.50
2018-11-02T19:07:45.302Z,9.50
2018-11-02T19:10:13.821Z,9.60
2018-11-02T19:12:43.007Z,9.50
2018-11-02T19:15:17.806Z,9.50
2018-11-02T19:17:46.322Z,9.40
2018-11-02T19:20:15.160Z,9.40
2018-11-02T19:22:43.685Z,9.30
2018-11-02T19:25:13.413Z,9.30
2018-11-02T19:27:42.366Z,9.30
2018-11-02T19:30:12.043Z,9.30
2018-11-02T19:32:40.551Z,9.30
2018-11-02T19:35:09.985Z,9.30
2018-11-02T19:37:38.379Z,9.30
2018-11-02T19:40:09.023Z,9.30
2018-11-02T19:42:37.510Z,9.30
2018-11-02T19:45:06.279Z,9.30
2018-11-02T19:47:40.074Z,9.30
2018-11-02T19:50:10.212Z,9.30
2018-11-02T19:52:38.696Z,9.30
2018-11-02T19:55:07.880Z,9.20
2018-11-02T19:57:36.310Z,9.20
2018-11-02T20:00:05.675Z,9.20
2018-11-02T20:02:34.230Z,9.20
2018-11-02T20:05:02.778Z,9.20
2018-11-02T20:07:31.250Z,9.20
2018-11-02T20:09:59.757Z,9.20
2018-11-02T20:12:28.240Z,9.20
2018-11-02T20:14:56.771Z,9.20
2018-11-02T20:17:25.278Z,9.20
2018-11-02T20:19:53.808Z,9.20
2018-11-02T20:22:22.311Z,9.20
2018-11-02T20:24:50.824Z,9.10
2018-11-02T20:27:19.470Z,9.10
2018-11-02T20:29:47.981Z,9.10
2018-11-02T20:32:16.511Z,9.10
2018-11-02T20:34:45.040Z,9.00
2018-11-02T20:37:13.658Z,9.00
2018-11-02T20:39:42.360Z,9.00
2018-11-02T20:42:10.776Z,9.00
2018-11-02T20:44:39.457Z,9.00
2018-11-02T20:47:08.104Z,9.00
2018-11-02T20:49:36.616Z,9.00
2018-11-02T20:52:05.825Z,9.00
2018-11-02T20:54:34.349Z,9.00
2018-11-02T20:57:03.189Z,8.90
2018-11-02T20:59:31.726Z,9.00
2018-11-02T21:02:00.224Z,8.90
2018-11-02T21:04:28.925Z,8.90
2018-11-02T21:06:57.592Z,8.90
2018-11-02T21:09:26.218Z,8.90
2018-11-02T21:11:54.630Z,8.90
2018-11-02T21:14:23.303Z,8.90
2018-11-02T21:16:51.658Z,8.80
2018-11-02T21:19:20.179Z,8.80
2018-11-02T21:21:48.680Z,8.80
2018-11-02T21:24:17.151Z,8.80
2018-11-02T21:26:45.650Z,8.80
2018-11-02T21:29:14.202Z,8.80
2018-11-02T21:31:42.711Z,8.80
2018-11-02T21:34:11.267Z,8.70
2018-11-02T21:36:39.754Z,8.50
2018-11-02T21:39:10.552Z,8.70
2018-11-02T21:41:39.043Z,8.70
2018-11-02T21:44:07.606Z,8.70
2018-11-02T21:46:36.072Z,8.70
2018-11-02T21:49:04.773Z,8.70
2018-11-02T21:51:33.240Z,8.70
2018-11-02T21:54:01.746Z,8.60
2018-11-02T21:56:30.318Z,8.60
2018-11-02T21:58:58.778Z,8.60
2018-11-02T22:01:27.232Z,8.60
2018-11-02T22:03:55.779Z,8.60
2018-11-02T22:06:24.348Z,8.60
2018-11-02T22:08:52.909Z,8.60
2018-11-02T22:11:21.420Z,8.60
2018-11-02T22:13:49.922Z,8.60
2018-11-02T22:16:18.390Z,8.60
2018-11-02T22:18:46.980Z,8.60
2018-11-02T22:21:15.403Z,8.60
2018-11-02T22:23:43.939Z,8.60
2018-11-02T22:26:12.481Z,8.50
2018-11-02T22:28:41.089Z,8.50
2018-11-02T22:31:09.555Z,8.50
2018-11-02T22:33:38.106Z,8.40
2018-11-02T22:36:06.618Z,8.40
2018-11-02T22:38:35.141Z,8.40
2018-11-02T22:41:03.630Z,8.40
2018-11-02T22:43:32.151Z,8.40
2018-11-02T22:46:00.672Z,8.40
2018-11-02T22:48:29.250Z,8.40
2018-11-02T22:50:57.789Z,8.40
2018-11-02T22:53:26.318Z,8.30
2018-11-02T22:55:54.816Z,8.30
2018-11-02T22:58:23.352Z,8.30
2018-11-02T23:00:57.230Z,8.20
2018-11-02T23:03:25.766Z,8.30
2018-11-02T23:05:54.234Z,8.30
2018-11-02T23:08:22.779Z,8.30
2018-11-02T23:10:51.273Z,8.30
2018-11-02T23:13:19.866Z,8.30
2018-11-02T23:15:48.330Z,8.30
2018-11-02T23:18:17.478Z,8.30
2018-11-02T23:20:45.950Z,8.30
2018-11-02T23:23:14.455Z,8.30
2018-11-02T23:25:42.907Z,8.30
2018-11-02T23:28:11.416Z,8.30
2018-11-02T23:30:39.892Z,8.30
2018-11-02T23:33:08.389Z,8.20
2018-11-02T23:35:36.893Z,8.20
2018-11-02T23:38:05.518Z,8.20
2018-11-02T23:40:33.982Z,8.20
2018-11-02T23:43:02.474Z,8.20
2018-11-02T23:45:30.927Z,8.20
2018-11-02T23:48:04.837Z,8.20
2018-11-02T23:50:33.281Z,8.10
2018-11-02T23:53:01.759Z,8.10
2018-11-02T23:55:30.327Z,8.10
2018-11-02T23:57:58.841Z,8.00
